(°C)
(°C)
-0°
OSO
O
O
O
ONO
ONO
NO
(km/h)
9-13
9-13
8-12
8-12
8-13
8-17
9-15
(mm)
1
1
0
0
0
0
0
(%)
54
40
10
3
8
21
21

Élévation du soleil

/ -27.7°
sun-icon
UV 1
06:47
19:33
Gibbeuse croissante (137°)
19:13
00:55

METAR pour 57.92°N 56.02°E (USPP)

Heure Conditions Température/
Point de rosée
Vent Visibilité Météo Nuages Pression Changement Brut
MVFR 5°C / 5°C 300º variable 280º to 340º 4kt >10km Light Rain 1.00mm precipitation Vertical Visibility of 0ft. 1009 Temporary: Visibility 2200. Light Rain . Broken Clouds 1100ft. RMK QFE746 . Runway 21: Wet or puddles, 51-100% contamination with 2mm, friction coefficient 0.50. USPP 171830Z 30002MPS 280V340 9999 -RA BKN024 05/05 Q1009 R21/290250 TEMPO 2200 -RA BKN011 RMK QFE746
MVFR 5°C / 5°C 310º 4kt >10km Light Rain 1.00mm precipitation Vertical Visibility of 0ft. 1009 Temporary: Visibility 2200. Light Rain . Broken Clouds 1100ft. RMK QFE746 . Runway 21: Wet or puddles, 51-100% contamination with 2mm, friction coefficient 0.50. USPP 171800Z 31002MPS 9999 -RA BKN023 05/05 Q1009 R21/290250 TEMPO 2200 -RA BKN011 RMK QFE746
MVFR 5°C / 5°C 300º 4kt >10km Light Rain 1.00mm precipitation Vertical Visibility of 0ft. 1009 Temporary: Visibility 2200. Light Rain . Broken Clouds 1100ft. RMK QFE746 . Runway 21: Wet or puddles, 51-100% contamination with 2mm, friction coefficient 0.50. USPP 171730Z 30002MPS 9999 -RA BKN026 05/05 Q1009 R21/290250 TEMPO 2200 -RA BKN011 RMK QFE746
MVFR 6°C / 5°C 310º 4kt >10km Light Rain 1.00mm precipitation Vertical Visibility of 0ft. 1009 Temporary: Visibility 2200. Light Rain . Broken Clouds 1100ft. RMK QFE746 . Runway 21: Wet or puddles, 51-100% contamination with 2mm, friction coefficient 0.50. USPP 171700Z 31002MPS 9999 -RA BKN029 06/05 Q1009 R21/290250 TEMPO 2200 -RA BKN011 RMK QFE746
MVFR 6°C / 5°C 310º 4kt >10km Light Rain 1.00mm precipitation Vertical Visibility of 0ft. 1009 Temporary: Visibility 3000. Light Rain . Broken Clouds 500ft. RMK QFE746 . Runway 21: Wet or puddles, 51-100% contamination with 2mm, friction coefficient 0.50. USPP 171630Z 31002MPS 9999 -RA BKN028 06/05 Q1009 R21/290250 TEMPO 3000 -RA BKN005 RMK QFE746
MVFR 6°C / 6°C 310º 6kt >10km Light Rain 1.00mm precipitation Vertical Visibility of 0ft. 1009 Temporary: Visibility 3000. Light Rain . Broken Clouds 500ft. RMK QFE746 . Runway 21: Wet or puddles, 51-100% contamination with 2mm, friction coefficient 0.50. USPP 171600Z 31003MPS 9999 -RA BKN028 06/06 Q1009 R21/290250 TEMPO 3000 -RA BKN005 RMK QFE746
VFR 6°C / 6°C 300º 4kt >10km Light Rain 1.00mm precipitation Vertical Visibility of 0ft. 1009 Temporary: Visibility 3000. Light Rain . Broken Clouds 500ft. RMK QFE746 . Runway 21: Wet or puddles, 51-100% contamination with 1mm, friction coefficient 0.50. USPP 171530Z 30002MPS 9999 -RA BKN038 06/06 Q1009 R21/290150 TEMPO 3000 -RA BKN005 RMK QFE746
MVFR 6°C / 5°C 330º variable 300º to 360º 4kt >10km Light Rain 1.00mm precipitation Vertical Visibility of 0ft. 1009 Temporary: Visibility 3000. Light Rain . Broken Clouds 500ft. RMK QFE746 . Runway 21: Wet or puddles, 51-100% contamination with 1mm, friction coefficient 0.50. USPP 171500Z 33002MPS 300V360 9999 -RA BKN026 06/05 Q1009 R21/290150 TEMPO 3000 -RA BKN005 RMK QFE746
MVFR 6°C / 6°C 320º 6kt >10km Light Rain 1.00mm precipitation Vertical Visibility of 0ft. 1009 Temporary: Visibility 3000. Light Rain . Broken Clouds 500ft. RMK QFE746 . Runway 21: Wet or puddles, 51-100% contamination with 1mm, friction coefficient 0.50. USPP 171430Z 32003MPS 9999 -RA FEW009 BKN022 06/06 Q1009 R21/290150 TEMPO 3000 -RA BKN005 RMK QFE746
MVFR 7°C / 7°C 320º variable 290º to 350º 6kt >10km Light Rain 1.00mm precipitation Vertical Visibility of 0ft. 1009 Temporary: Visibility 3000. Light Rain . Broken Clouds 500ft. RMK QFE746 . Runway 21: Wet or puddles, 51-100% contamination with 1mm, friction coefficient 0.50. USPP 171400Z 32003MPS 290V350 9999 -RA FEW010 BKN027 07/07 Q1009 R21/290150 TEMPO 3000 -RA BKN005 RMK QFE746
MVFR 7°C / 7°C 320º variable 290º to 350º 6kt >10km Light Rain 1.00mm precipitation Vertical Visibility of 0ft. 1008 Temporary: Broken Clouds 600ft. RMK QFE746 . Runway 21: Wet or puddles, 51-100% contamination with 1mm, friction coefficient 0.50. USPP 171330Z 32003MPS 290V350 9999 -RA FEW009 BKN026 07/07 Q1008 R21/290150 TEMPO BKN006 RMK QFE746
MVFR 7°C / 6°C 320º variable 280º to 360º 6kt >10km Light Rain 1.00mm precipitation Vertical Visibility of 0ft. 1008 Temporary: Broken Clouds 600ft. RMK QFE746 . Runway 21: Wet or puddles, 51-100% contamination with 1mm, friction coefficient 0.50. USPP 171300Z 32003MPS 280V360 9999 -RA FEW010 BKN024 07/06 Q1008 R21/290150 TEMPO BKN006 RMK QFE746
MVFR 7°C / 7°C 320º variable 290º to 360º 8kt >10km Light Rain 1.00mm precipitation Vertical Visibility of 0ft. 1008 Temporary: Broken Clouds 600ft. RMK QFE746 . Runway 21: Wet or puddles, 51-100% contamination with 1mm, friction coefficient 0.50. USPP 171230Z 32004MPS 290V360 9999 -RA BKN010 07/07 Q1008 R21/290150 TEMPO BKN006 RMK QFE746
MVFR 7°C / 7°C 320º variable 290º to 010º 8kt >10km Light Rain 1.00mm precipitation Vertical Visibility of 0ft. 1008 Temporary: Broken Clouds 600ft. RMK QFE745 . Runway 21: Wet or puddles, 51-100% contamination with 1mm, friction coefficient 0.50. USPP 171200Z 32004MPS 290V010 9999 -RA FEW008 BKN015 07/07 Q1008 R21/290150 TEMPO BKN006 RMK QFE745
MVFR 8°C / 7°C 310º variable 290º to 350º 8kt >10km Light Rain 1.00mm precipitation Vertical Visibility of 0ft. 1008 Temporary: Broken Clouds 600ft. RMK QFE745 . Runway 21: Wet or puddles, 51-100% contamination with 1mm, friction coefficient 0.50. USPP 171130Z 31004MPS 290V350 9999 -RA FEW009 BKN019 08/07 Q1008 R21/290150 TEMPO BKN006 RMK QFE745
MVFR 8°C / 7°C 310º variable 280º to 350º 8kt >10km Light Rain 1.00mm precipitation Vertical Visibility of 0ft. 1008 No Significant change. Runway 21: Wet or puddles, 51-100% contamination with 1mm, friction coefficient 0.50. USPP 171100Z 31004MPS 280V350 9999 -RA BKN015 08/07 Q1008 R21/290150 NOSIG RMK QFE745
MVFR 8°C / 6°C 320º 8kt >10km Light Rain 1.00mm precipitation Vertical Visibility of 0ft. 1008 Temporary: Overcast 500ft. RMK QFE745 . Runway 21: Wet or puddles, 51-100% contamination with 1mm, friction coefficient 0.50. USPP 171030Z 32004MPS 9999 -RA BKN027 08/06 Q1008 R21/290150 TEMPO OVC005 RMK QFE745
MVFR 8°C / 6°C 310º variable 280º to 340º 10kt >10km Light Rain 1.00mm precipitation Vertical Visibility of 0ft. 1007 Temporary: Overcast 500ft. RMK QFE745 . Runway 21: Wet or puddles, 51-100% contamination with 1mm, friction coefficient 0.50. USPP 171000Z 31005MPS 280V340 9999 -RA OVC016 08/06 Q1007 R21/290150 TEMPO OVC005 RMK QFE745
MVFR 8°C / 6°C 320º variable 290º to 360º 8kt >10km - Overcast 1500ft 1007 Temporary: Overcast 500ft. RMK QFE745 . Runway 21: Wet or puddles, 51-100% contamination with 1mm, friction coefficient 0.50. USPP 170930Z 32004MPS 290V360 9999 OVC015 08/06 Q1007 R21/290150 TEMPO OVC005 RMK QFE745
MVFR 8°C / 6°C 320º variable 290º to 360º 10kt >10km - Overcast 1500ft 1007 Temporary: Overcast 500ft. RMK QFE744 . Runway 21: Wet or puddles, 51-100% contamination with 1mm, friction coefficient 0.50. USPP 170900Z 32005MPS 290V360 9999 OVC015 08/06 Q1007 R21/290150 TEMPO OVC005 RMK QFE744
MVFR 8°C / 5°C 330º variable 300º to 010º 10kt >10km Light Rain 1.00mm precipitation Vertical Visibility of 0ft. 1007 Temporary: Overcast 500ft. RMK QFE744 . Runway 21: Wet or puddles, 51-100% contamination with 1mm, friction coefficient 0.50. USPP 170830Z 33005MPS 300V010 9999 -RA OVC017 08/05 Q1007 R21/290150 TEMPO OVC005 RMK QFE744
MVFR 8°C / 5°C 320º variable 290º to 350º 8kt >10km - Overcast 1500ft 1006 Temporary: Overcast 500ft. RMK QFE744 . Runway 21: Wet or puddles, 51-100% contamination with 1mm, friction coefficient 0.50. USPP 170800Z 32004MPS 290V350 9999 OVC015 08/05 Q1006 R21/290150 TEMPO OVC005 RMK QFE744
MVFR 8°C / 5°C 340º variable 290º to 020º 8kt >10km - Overcast 1400ft 1006 Temporary: Overcast 500ft. RMK QFE744 . Runway 21: Wet or puddles, 51-100% contamination with 1mm, friction coefficient 0.50. USPP 170730Z 34004MPS 290V020 9999 OVC014 08/05 Q1006 R21/290150 TEMPO OVC005 RMK QFE744
MVFR 8°C / 5°C 330º variable 270º to 360º 6kt >10km - Overcast 1300ft 1006 Temporary: Overcast 500ft. RMK QFE744 . Runway 21: Wet or puddles, 51-100% contamination with 1mm, friction coefficient 0.50. USPP 170700Z 33003MPS 270V360 9999 OVC013 08/05 Q1006 R21/290150 TEMPO OVC005 RMK QFE744

MVFR

5°C / 5°C

[Plus]
Vent 300º variable 280º to 340º 4kt
Visibilité >10km
Météo Light Rain 1.00mm precipitation
Nuages Vertical Visibility of 0ft.
Pression 1009
Changement Temporary: Visibility 2200. Light Rain . Broken Clouds 1100ft. RMK QFE746 . Runway 21: Wet or puddles, 51-100% contamination with 2mm, friction coefficient 0.50.
Brut USPP 171830Z 30002MPS 280V340 9999 -RA BKN024 05/05 Q1009 R21/290250 TEMPO 2200 -RA BKN011 RMK QFE746

MVFR

5°C / 5°C

[Plus]
Vent 310º 4kt
Visibilité >10km
Météo Light Rain 1.00mm precipitation
Nuages Vertical Visibility of 0ft.
Pression 1009
Changement Temporary: Visibility 2200. Light Rain . Broken Clouds 1100ft. RMK QFE746 . Runway 21: Wet or puddles, 51-100% contamination with 2mm, friction coefficient 0.50.
Brut USPP 171800Z 31002MPS 9999 -RA BKN023 05/05 Q1009 R21/290250 TEMPO 2200 -RA BKN011 RMK QFE746

MVFR

5°C / 5°C

[Plus]
Vent 300º 4kt
Visibilité >10km
Météo Light Rain 1.00mm precipitation
Nuages Vertical Visibility of 0ft.
Pression 1009
Changement Temporary: Visibility 2200. Light Rain . Broken Clouds 1100ft. RMK QFE746 . Runway 21: Wet or puddles, 51-100% contamination with 2mm, friction coefficient 0.50.
Brut USPP 171730Z 30002MPS 9999 -RA BKN026 05/05 Q1009 R21/290250 TEMPO 2200 -RA BKN011 RMK QFE746

MVFR

6°C / 5°C

[Plus]
Vent 310º 4kt
Visibilité >10km
Météo Light Rain 1.00mm precipitation
Nuages Vertical Visibility of 0ft.
Pression 1009
Changement Temporary: Visibility 2200. Light Rain . Broken Clouds 1100ft. RMK QFE746 . Runway 21: Wet or puddles, 51-100% contamination with 2mm, friction coefficient 0.50.
Brut USPP 171700Z 31002MPS 9999 -RA BKN029 06/05 Q1009 R21/290250 TEMPO 2200 -RA BKN011 RMK QFE746

MVFR

6°C / 5°C

[Plus]
Vent 310º 4kt
Visibilité >10km
Météo Light Rain 1.00mm precipitation
Nuages Vertical Visibility of 0ft.
Pression 1009
Changement Temporary: Visibility 3000. Light Rain . Broken Clouds 500ft. RMK QFE746 . Runway 21: Wet or puddles, 51-100% contamination with 2mm, friction coefficient 0.50.
Brut USPP 171630Z 31002MPS 9999 -RA BKN028 06/05 Q1009 R21/290250 TEMPO 3000 -RA BKN005 RMK QFE746

MVFR

6°C / 6°C

[Plus]
Vent 310º 6kt
Visibilité >10km
Météo Light Rain 1.00mm precipitation
Nuages Vertical Visibility of 0ft.
Pression 1009
Changement Temporary: Visibility 3000. Light Rain . Broken Clouds 500ft. RMK QFE746 . Runway 21: Wet or puddles, 51-100% contamination with 2mm, friction coefficient 0.50.
Brut USPP 171600Z 31003MPS 9999 -RA BKN028 06/06 Q1009 R21/290250 TEMPO 3000 -RA BKN005 RMK QFE746

VFR

6°C / 6°C

[Plus]
Vent 300º 4kt
Visibilité >10km
Météo Light Rain 1.00mm precipitation
Nuages Vertical Visibility of 0ft.
Pression 1009
Changement Temporary: Visibility 3000. Light Rain . Broken Clouds 500ft. RMK QFE746 . Runway 21: Wet or puddles, 51-100% contamination with 1mm, friction coefficient 0.50.
Brut USPP 171530Z 30002MPS 9999 -RA BKN038 06/06 Q1009 R21/290150 TEMPO 3000 -RA BKN005 RMK QFE746

MVFR

6°C / 5°C

[Plus]
Vent 330º variable 300º to 360º 4kt
Visibilité >10km
Météo Light Rain 1.00mm precipitation
Nuages Vertical Visibility of 0ft.
Pression 1009
Changement Temporary: Visibility 3000. Light Rain . Broken Clouds 500ft. RMK QFE746 . Runway 21: Wet or puddles, 51-100% contamination with 1mm, friction coefficient 0.50.
Brut USPP 171500Z 33002MPS 300V360 9999 -RA BKN026 06/05 Q1009 R21/290150 TEMPO 3000 -RA BKN005 RMK QFE746

MVFR

6°C / 6°C

[Plus]
Vent 320º 6kt
Visibilité >10km
Météo Light Rain 1.00mm precipitation
Nuages Vertical Visibility of 0ft.
Pression 1009
Changement Temporary: Visibility 3000. Light Rain . Broken Clouds 500ft. RMK QFE746 . Runway 21: Wet or puddles, 51-100% contamination with 1mm, friction coefficient 0.50.
Brut USPP 171430Z 32003MPS 9999 -RA FEW009 BKN022 06/06 Q1009 R21/290150 TEMPO 3000 -RA BKN005 RMK QFE746

MVFR

7°C / 7°C

[Plus]
Vent 320º variable 290º to 350º 6kt
Visibilité >10km
Météo Light Rain 1.00mm precipitation
Nuages Vertical Visibility of 0ft.
Pression 1009
Changement Temporary: Visibility 3000. Light Rain . Broken Clouds 500ft. RMK QFE746 . Runway 21: Wet or puddles, 51-100% contamination with 1mm, friction coefficient 0.50.
Brut USPP 171400Z 32003MPS 290V350 9999 -RA FEW010 BKN027 07/07 Q1009 R21/290150 TEMPO 3000 -RA BKN005 RMK QFE746

MVFR

7°C / 7°C

[Plus]
Vent 320º variable 290º to 350º 6kt
Visibilité >10km
Météo Light Rain 1.00mm precipitation
Nuages Vertical Visibility of 0ft.
Pression 1008
Changement Temporary: Broken Clouds 600ft. RMK QFE746 . Runway 21: Wet or puddles, 51-100% contamination with 1mm, friction coefficient 0.50.
Brut USPP 171330Z 32003MPS 290V350 9999 -RA FEW009 BKN026 07/07 Q1008 R21/290150 TEMPO BKN006 RMK QFE746

MVFR

7°C / 6°C

[Plus]
Vent 320º variable 280º to 360º 6kt
Visibilité >10km
Météo Light Rain 1.00mm precipitation
Nuages Vertical Visibility of 0ft.
Pression 1008
Changement Temporary: Broken Clouds 600ft. RMK QFE746 . Runway 21: Wet or puddles, 51-100% contamination with 1mm, friction coefficient 0.50.
Brut USPP 171300Z 32003MPS 280V360 9999 -RA FEW010 BKN024 07/06 Q1008 R21/290150 TEMPO BKN006 RMK QFE746

MVFR

7°C / 7°C

[Plus]
Vent 320º variable 290º to 360º 8kt
Visibilité >10km
Météo Light Rain 1.00mm precipitation
Nuages Vertical Visibility of 0ft.
Pression 1008
Changement Temporary: Broken Clouds 600ft. RMK QFE746 . Runway 21: Wet or puddles, 51-100% contamination with 1mm, friction coefficient 0.50.
Brut USPP 171230Z 32004MPS 290V360 9999 -RA BKN010 07/07 Q1008 R21/290150 TEMPO BKN006 RMK QFE746

MVFR

7°C / 7°C

[Plus]
Vent 320º variable 290º to 010º 8kt
Visibilité >10km
Météo Light Rain 1.00mm precipitation
Nuages Vertical Visibility of 0ft.
Pression 1008
Changement Temporary: Broken Clouds 600ft. RMK QFE745 . Runway 21: Wet or puddles, 51-100% contamination with 1mm, friction coefficient 0.50.
Brut USPP 171200Z 32004MPS 290V010 9999 -RA FEW008 BKN015 07/07 Q1008 R21/290150 TEMPO BKN006 RMK QFE745

MVFR

8°C / 7°C

[Plus]
Vent 310º variable 290º to 350º 8kt
Visibilité >10km
Météo Light Rain 1.00mm precipitation
Nuages Vertical Visibility of 0ft.
Pression 1008
Changement Temporary: Broken Clouds 600ft. RMK QFE745 . Runway 21: Wet or puddles, 51-100% contamination with 1mm, friction coefficient 0.50.
Brut USPP 171130Z 31004MPS 290V350 9999 -RA FEW009 BKN019 08/07 Q1008 R21/290150 TEMPO BKN006 RMK QFE745

MVFR

8°C / 7°C

[Plus]
Vent 310º variable 280º to 350º 8kt
Visibilité >10km
Météo Light Rain 1.00mm precipitation
Nuages Vertical Visibility of 0ft.
Pression 1008
Changement No Significant change. Runway 21: Wet or puddles, 51-100% contamination with 1mm, friction coefficient 0.50.
Brut USPP 171100Z 31004MPS 280V350 9999 -RA BKN015 08/07 Q1008 R21/290150 NOSIG RMK QFE745

MVFR

8°C / 6°C

[Plus]
Vent 320º 8kt
Visibilité >10km
Météo Light Rain 1.00mm precipitation
Nuages Vertical Visibility of 0ft.
Pression 1008
Changement Temporary: Overcast 500ft. RMK QFE745 . Runway 21: Wet or puddles, 51-100% contamination with 1mm, friction coefficient 0.50.
Brut USPP 171030Z 32004MPS 9999 -RA BKN027 08/06 Q1008 R21/290150 TEMPO OVC005 RMK QFE745

MVFR

8°C / 6°C

[Plus]
Vent 310º variable 280º to 340º 10kt
Visibilité >10km
Météo Light Rain 1.00mm precipitation
Nuages Vertical Visibility of 0ft.
Pression 1007
Changement Temporary: Overcast 500ft. RMK QFE745 . Runway 21: Wet or puddles, 51-100% contamination with 1mm, friction coefficient 0.50.
Brut USPP 171000Z 31005MPS 280V340 9999 -RA OVC016 08/06 Q1007 R21/290150 TEMPO OVC005 RMK QFE745

MVFR

8°C / 6°C

[Plus]
Vent 320º variable 290º to 360º 8kt
Visibilité >10km
Météo -
Nuages Overcast 1500ft
Pression 1007
Changement Temporary: Overcast 500ft. RMK QFE745 . Runway 21: Wet or puddles, 51-100% contamination with 1mm, friction coefficient 0.50.
Brut USPP 170930Z 32004MPS 290V360 9999 OVC015 08/06 Q1007 R21/290150 TEMPO OVC005 RMK QFE745

MVFR

8°C / 6°C

[Plus]
Vent 320º variable 290º to 360º 10kt
Visibilité >10km
Météo -
Nuages Overcast 1500ft
Pression 1007
Changement Temporary: Overcast 500ft. RMK QFE744 . Runway 21: Wet or puddles, 51-100% contamination with 1mm, friction coefficient 0.50.
Brut USPP 170900Z 32005MPS 290V360 9999 OVC015 08/06 Q1007 R21/290150 TEMPO OVC005 RMK QFE744

MVFR

8°C / 5°C

[Plus]
Vent 330º variable 300º to 010º 10kt
Visibilité >10km
Météo Light Rain 1.00mm precipitation
Nuages Vertical Visibility of 0ft.
Pression 1007
Changement Temporary: Overcast 500ft. RMK QFE744 . Runway 21: Wet or puddles, 51-100% contamination with 1mm, friction coefficient 0.50.
Brut USPP 170830Z 33005MPS 300V010 9999 -RA OVC017 08/05 Q1007 R21/290150 TEMPO OVC005 RMK QFE744

MVFR

8°C / 5°C

[Plus]
Vent 320º variable 290º to 350º 8kt
Visibilité >10km
Météo -
Nuages Overcast 1500ft
Pression 1006
Changement Temporary: Overcast 500ft. RMK QFE744 . Runway 21: Wet or puddles, 51-100% contamination with 1mm, friction coefficient 0.50.
Brut USPP 170800Z 32004MPS 290V350 9999 OVC015 08/05 Q1006 R21/290150 TEMPO OVC005 RMK QFE744

MVFR

8°C / 5°C

[Plus]
Vent 340º variable 290º to 020º 8kt
Visibilité >10km
Météo -
Nuages Overcast 1400ft
Pression 1006
Changement Temporary: Overcast 500ft. RMK QFE744 . Runway 21: Wet or puddles, 51-100% contamination with 1mm, friction coefficient 0.50.
Brut USPP 170730Z 34004MPS 290V020 9999 OVC014 08/05 Q1006 R21/290150 TEMPO OVC005 RMK QFE744

MVFR

8°C / 5°C

[Plus]
Vent 330º variable 270º to 360º 6kt
Visibilité >10km
Météo -
Nuages Overcast 1300ft
Pression 1006
Changement Temporary: Overcast 500ft. RMK QFE744 . Runway 21: Wet or puddles, 51-100% contamination with 1mm, friction coefficient 0.50.
Brut USPP 170700Z 33003MPS 270V360 9999 OVC013 08/05 Q1006 R21/290150 TEMPO OVC005 RMK QFE744

TAF pour 57.92°N 56.02°E (USPP)

From till


From till Wind 310º 6kt. Gust 17kt. Visibility 6000m. Light Showers Rain . Broken Clouds 1600ft.
Becoming from till Wind 320º 6kt. Gust 27kt. Visibility 6000m. Light Showers Rain . Broken Clouds 1600ft.

Brut: TAF USPP 171656Z 1718/1818 31003G09MPS 6000 -SHRA BKN016CB BECMG 1802/1803 32003G14MPS

Les images satellites et les pluies actuelles pour 57.92°N 56.02°E

Le marqueur est placé sur 57.92°N 56.02°E. [Plus]

L'image satellite en temps réel combine la lumière visible pendant la journée et le rayonnement infrarouge pendant la nuit. La nuit, l'image n'est pas sombre car le rayonnement infrarouge permet de détecter les différences de température. Malheureusement, les nuages bas et le brouillard sont difficiles à distinguer des températures au sol et peuvent donc être presque invisibles pendant la nuit. Les images des satellites Météosat pour l'Europe sont mises à jour en temps réel toutes les 5 minutes. Les images GOES-16/GOES-17 (Amérique du Nord et du Sud) et Himawari (Asie) sont mises à jour toutes les 10 minutes.

Copyright 2021 EUMETSAT / meteoblue. / Copyright 2021 meteoblue

Radar et prévision de précipitation à court terme pour 57.92°N 56.02°E

Bruine
Légère
Modéré
Fort
Très fort
Grêle

Le marqueur est placé sur 57.92°N 56.02°E. Cette animation montre le Radar des précipitations pour les dernières heures, ainsi qu'une 1h prévision. La bruine ou les légères chutes de neiges peuvent ne pas être détectées par le radar. L'intensité des précipitations est visible avec un code couleur allant du bleu clair au orange.